Time;durP1;ratioP1;P1;durP2;ratioP2;P2;SDS_P1;SDS_P2;PMS_P1;PMS_P2;Temp;Humidity;BMP_temperature;BMP_pressure;BME280_temperature;BME280_humidity;BME280_pressure;Samples;Min_cycle;Max_cycle;Signal;HPM_P1;HPM_P2
2022/04/19 00:01:00;;;;;;;6.50;2.80;;;;;;100121.21;;;;107156;1274;64839;-30
2022/04/19 00:03:27;;;;;;;7.10;2.40;;;;;;100117.09;;;;107293;1274;64741;-31
2022/04/19 00:05:58;;;;;;;8.50;2.80;;;;;;100119.55;;;;107267;1274;64894;-30
2022/04/19 00:08:25;;;;;;;5.80;2.40;;;;;;100119.25;;;;107321;1273;64733;-35
2022/04/19 00:10:56;;;;;;;5.80;2.50;;;;;;100119.52;;;;107278;1274;66006;-35
2022/04/19 00:13:28;;;;;;;6.70;2.60;;;;;;100117.94;;;;107282;1274;64764;-35
2022/04/19 00:15:57;;;;;;;5.60;2.40;;;;;;100115.08;;;;107181;1274;64715;-35
2022/04/19 00:18:27;;;;;;;6.40;2.20;;;;;;100114.37;;;;107304;1274;64784;-30
2022/04/19 00:20:55;;;;;;;6.10;2.50;;;;;;100112.73;;;;107272;1274;64964;-30
2022/04/19 00:23:25;;;;;;;5.90;2.40;;;;;;100114.24;;;;107188;1274;65238;-29
2022/04/19 00:25:52;;;;;;;8.20;2.50;;;;;;100113.67;;;;107275;1274;64795;-30
2022/04/19 00:28:24;;;;;;;8.30;2.70;;;;;;100110.84;;;;107290;1274;64893;-30
2022/04/19 00:30:54;;;;;;;5.50;2.20;;;;;;100112.79;;;;107166;1274;64829;-31
2022/04/19 00:33:25;;;;;;;5.50;2.20;;;;;;100113.85;;;;107272;1273;64753;-36
2022/04/19 00:35:52;;;;;;;5.30;2.20;;;;;;100112.01;;;;107282;1274;66454;-30
2022/04/19 00:38:20;;;;;;;5.80;2.70;;;;;;100110.35;;;;107253;1274;64754;-29
2022/04/19 00:40:47;;;;;;;5.40;2.10;;;;;;100109.59;;;;107284;1274;64958;-30
2022/04/19 00:43:21;;;;;;;5.70;2.20;;;;;;100108.64;;;;107244;1274;64907;-30
2022/04/19 00:45:51;;;;;;;7.00;2.60;;;;;;100107.25;;;;107281;1274;64821;-30
2022/04/19 00:48:21;;;;;;;5.50;2.10;;;;;;100106.81;;;;107273;1274;66427;-35
2022/04/19 00:50:51;;;;;;;6.60;2.20;;;;;;100109.69;;;;107292;1274;65142;-35
2022/04/19 00:53:20;;;;;;;4.50;2.00;;;;;;100105.84;;;;107270;1274;64839;-35
2022/04/19 00:55:48;;;;;;;5.50;2.50;;;;;;100104.89;;;;107207;1274;64837;-35
2022/04/19 00:58:18;;;;;;;4.30;2.10;;;;;;100097.34;;;;107324;1274;64757;-36
2022/04/19 01:00:45;;;;;;;5.20;2.40;;;;;;100096.89;;;;107288;1274;66437;-32
2022/04/19 01:03:13;;;;;;;6.40;2.30;;;;;;100098.10;;;;107276;1274;64827;-35
2022/04/19 01:05:48;;;;;;;4.60;2.10;;;;;;100097.48;;;;107176;1274;65953;-35
2022/04/19 01:08:15;;;;;;;4.90;2.10;;;;;;100093.37;;;;107240;1274;64748;-31
2022/04/19 01:10:45;;;;;;;4.70;2.40;;;;;;100090.20;;;;107259;1273;64955;-30
2022/04/19 01:13:17;;;;;;;5.40;2.50;;;;;;100089.40;;;;107266;1274;65682;-30
2022/04/19 01:15:47;;;;;;;4.80;2.00;;;;;;100086.58;;;;107257;1273;64954;-30
2022/04/19 01:18:20;;;;;;;5.30;2.10;;;;;;100084.08;;;;107307;1274;64767;-35
2022/04/19 01:20:50;;;;;;;;;;;;;;100082.14;;;;107238;1274;64941;-35
2022/04/19 01:23:19;;;;;;;5.90;2.10;;;;;;100082.88;;;;107255;1274;64761;-30
2022/04/19 01:25:47;;;;;;;4.70;2.00;;;;;;100080.64;;;;107190;1274;64752;-38
2022/04/19 01:28:15;;;;;;;5.60;2.20;;;;;;100077.16;;;;107277;1274;64745;-35
2022/04/19 01:30:52;;;;;;;5.50;2.10;;;;;;100077.58;;;;107301;1274;64830;-35
2022/04/19 01:33:24;;;;;;;5.30;2.20;;;;;;100074.61;;;;107161;1274;64747;-35
2022/04/19 01:35:51;;;;;;;4.80;2.20;;;;;;100074.56;;;;107330;1274;64880;-36
2022/04/19 01:38:21;;;;;;;4.20;1.80;;;;;;100069.73;;;;107246;1274;67018;-31
2022/04/19 01:40:49;;;;;;;5.00;2.10;;;;;;100071.02;;;;107281;1274;64747;-38
2022/04/19 01:43:16;;;;;;;4.00;1.80;;;;;;100069.25;;;;107258;1274;64703;-30
2022/04/19 01:45:43;;;;;;;4.40;2.10;;;;;;100067.90;;;;107258;1274;64875;-30
2022/04/19 01:48:13;;;;;;;4.50;1.90;;;;;;100067.83;;;;107294;1274;64819;-35
2022/04/19 01:50:40;;;;;;;4.70;2.10;;;;;;100066.50;;;;107276;1274;67496;-35
2022/04/19 01:53:12;;;;;;;4.40;1.90;;;;;;100066.00;;;;107269;1274;64950;-40
2022/04/19 01:55:44;;;;;;;5.00;2.20;;;;;;100063.71;;;;107193;1274;64783;-39
2022/04/19 01:58:14;;;;;;;3.90;1.70;;;;;;100063.38;;;;107277;1274;64874;-30
2022/04/19 02:00:41;;;;;;;4.00;1.90;;;;;;100065.98;;;;107281;1274;64753;-31
2022/04/19 02:03:12;;;;;;;4.80;2.10;;;;;;100067.63;;;;107263;1274;64862;-36
2022/04/19 02:05:39;;;;;;;3.70;1.70;;;;;;100067.77;;;;107252;1274;64852;-36
2022/04/19 02:08:09;;;;;;;5.10;2.30;;;;;;100063.42;;;;107270;1274;64730;-30
2022/04/19 02:10:37;;;;;;;5.00;2.00;;;;;;100063.36;;;;107254;1274;64858;-31
2022/04/19 02:13:05;;;;;;;4.50;1.90;;;;;;100062.92;;;;107246;1274;65850;-30
2022/04/19 02:15:35;;;;;;;4.80;1.80;;;;;;100061.73;;;;107296;1274;66057;-30
2022/04/19 02:18:03;;;;;;;4.60;2.00;;;;;;100060.08;;;;107148;1274;64839;-30
2022/04/19 02:20:31;;;;;;;4.00;1.70;;;;;;100058.23;;;;107267;1274;64822;-31
2022/04/19 02:23:01;;;;;;;3.90;1.80;;;;;;100059.98;;;;107290;1273;64767;-30
2022/04/19 02:25:31;;;;;;;3.70;1.80;;;;;;100061.02;;;;107291;1273;64971;-30
2022/04/19 02:28:00;;;;;;;4.70;1.90;;;;;;100058.59;;;;107177;1274;66216;-40
2022/04/19 02:30:31;;;;;;;4.70;1.80;;;;;;100057.23;;;;107310;1274;64757;-35
2022/04/19 02:33:02;;;;;;;4.00;1.80;;;;;;100055.36;;;;107295;1274;64727;-36
2022/04/19 02:35:32;;;;;;;4.10;1.60;;;;;;100054.98;;;;107252;1274;65330;-36
2022/04/19 02:38:00;;;;;;;4.50;1.70;;;;;;100055.27;;;;107286;1274;64016;-45
2022/04/19 02:40:30;;;;;;;3.50;1.40;;;;;;100058.16;;;;107258;1274;65268;-36
2022/04/19 02:43:01;;;;;;;4.20;1.60;;;;;;100056.43;;;;107249;1274;64013;-31
2022/04/19 02:45:28;;;;;;;5.00;1.70;;;;;;100053.31;;;;107265;1274;64718;-31
2022/04/19 02:48:07;;;;;;;4.00;1.70;;;;;;100052.96;;;;107277;1274;64729;-31
2022/04/19 02:50:42;;;;;;;4.80;1.70;;;;;;100055.14;;;;107278;1274;64796;-31
2022/04/19 02:53:10;;;;;;;3.90;1.70;;;;;;100054.20;;;;107180;1274;67376;-31
2022/04/19 02:55:41;;;;;;;3.80;1.50;;;;;;100052.56;;;;107261;1274;64852;-31
2022/04/19 02:58:08;;;;;;;4.40;1.80;;;;;;100052.65;;;;107195;1274;64776;-31
2022/04/19 03:00:39;;;;;;;4.40;1.80;;;;;;100052.11;;;;107270;1274;64757;-31
2022/04/19 03:03:09;;;;;;;4.60;1.70;;;;;;100053.48;;;;107323;1274;64749;-39
2022/04/19 03:05:40;;;;;;;4.20;1.50;;;;;;100050.30;;;;107276;1273;66451;-43
2022/04/19 03:08:10;;;;;;;3.90;1.60;;;;;;100053.11;;;;107278;1274;64744;-32
2022/04/19 03:10:40;;;;;;;4.00;1.70;;;;;;100054.86;;;;107267;1272;64892;-37
2022/04/19 03:13:07;;;;;;;4.40;1.50;;;;;;100056.36;;;;107260;1274;64854;-31
2022/04/19 03:15:34;;;;;;;3.80;1.70;;;;;;100055.27;;;;107286;1274;64860;-31
2022/04/19 03:18:02;;;;;;;4.10;1.80;;;;;;100059.45;;;;107265;1274;64913;-31
2022/04/19 03:20:29;;;;;;;3.50;1.50;;;;;;100062.70;;;;107252;1274;64680;-32
2022/04/19 03:28:28;;;;;;;3.80;1.60;;;;;;100070.46;;;;107309;1274;65884;-36
2022/04/19 03:30:55;;;;;;;4.50;1.50;;;;;;100069.79;;;;107195;1274;66119;-36
2022/04/19 03:33:22;;;;;;;3.70;1.60;;;;;;100069.35;;;;107304;1274;64778;-31
2022/04/19 03:35:56;;;;;;;3.90;1.60;;;;;;100074.34;;;;107259;1274;64883;-31
2022/04/19 03:38:23;;;;;;;4.20;1.40;;;;;;100071.27;;;;107270;1274;64898;-31
2022/04/19 03:40:50;;;;;;;3.10;1.60;;;;;;100073.55;;;;107259;1273;64793;-34
2022/04/19 03:43:17;;;;;;;3.70;1.50;;;;;;100073.55;;;;107281;1274;66111;-29
2022/04/19 03:45:48;;;;;;;4.30;1.80;;;;;;100075.13;;;;107175;1274;64878;-31
2022/04/19 03:48:15;;;;;;;3.70;1.40;;;;;;100076.08;;;;107285;1274;64749;-36
2022/04/19 03:50:42;;;;;;;3.60;1.40;;;;;;100076.23;;;;107273;1274;64769;-36
2022/04/19 03:53:12;;;;;;;3.50;1.30;;;;;;100082.14;;;;107178;1274;64894;-36
2022/04/19 03:55:39;;;;;;;3.80;1.60;;;;;;100082.87;;;;107274;1274;66194;-36
2022/04/19 03:58:09;;;;;;;4.00;1.80;;;;;;100081.86;;;;107273;1274;64849;-42
2022/04/19 04:00:37;;;;;;;3.40;1.40;;;;;;100080.24;;;;107270;1274;64818;-37
2022/04/19 04:03:08;;;;;;;3.50;1.50;;;;;;100075.73;;;;107274;1274;64734;-31
2022/04/19 04:05:35;;;;;;;3.70;1.70;;;;;;100076.88;;;;107280;1274;64775;-30
2022/04/19 04:08:02;;;;;;;3.80;1.50;;;;;;100081.78;;;;107268;1274;66504;-31
2022/04/19 04:10:29;;;;;;;3.40;1.40;;;;;;100084.00;;;;107254;1274;64954;-30
2022/04/19 04:12:58;;;;;;;4.10;1.60;;;;;;100086.23;;;;107272;1273;64721;-31
2022/04/19 04:15:26;;;;;;;3.10;1.30;;;;;;100091.40;;;;107025;1274;319378;-31
2022/04/19 04:17:56;;;;;;;3.60;1.20;;;;;;100094.15;;;;107293;1274;62332;-37
2022/04/19 04:20:27;;;;;;;3.10;1.40;;;;;;100093.92;;;;107254;1274;67384;-43
2022/04/19 04:22:54;;;;;;;2.80;1.20;;;;;;100096.39;;;;107196;1274;64757;-36
2022/04/19 04:25:25;;;;;;;3.20;1.50;;;;;;100100.55;;;;107269;1274;64734;-36
2022/04/19 04:27:52;;;;;;;3.50;1.30;;;;;;100102.58;;;;107246;1274;64971;-36
2022/04/19 04:30:19;;;;;;;3.40;1.40;;;;;;100104.98;;;;107278;1274;64833;-35
2022/04/19 04:32:47;;;;;;;3.10;1.20;;;;;;100110.19;;;;107284;1274;66053;-30
2022/04/19 04:35:14;;;;;;;2.80;1.20;;;;;;100112.92;;;;107247;1274;64834;-30
2022/04/19 04:37:44;;;;;;;4.60;1.30;;;;;;100115.01;;;;107239;1274;64757;-30
2022/04/19 04:40:12;;;;;;;2.50;1.00;;;;;;100117.64;;;;107266;1274;64767;-30
2022/04/19 04:42:43;;;;;;;3.80;1.40;;;;;;100121.80;;;;107333;1272;64788;-35
2022/04/19 04:45:11;;;;;;;3.40;1.30;;;;;;100123.47;;;;107266;1273;65200;-35
2022/04/19 04:50:27;;;;;;;2.70;1.30;;;;;;100123.54;;;;107248;1274;64820;-30
2022/04/19 04:52:57;;;;;;;3.40;1.10;;;;;;100124.81;;;;107271;1274;64767;-30
2022/04/19 04:55:28;;;;;;;2.90;1.30;;;;;;100130.34;;;;107271;1274;64783;-31
2022/04/19 04:58:01;;;;;;;3.40;1.30;;;;;;100128.73;;;;107247;1274;67685;-45
2022/04/19 05:00:31;;;;;;;3.50;1.30;;;;;;100130.70;;;;107269;1273;64748;-30
2022/04/19 05:02:58;;;;;;;3.50;1.40;;;;;;100135.90;;;;107282;1274;64747;-30
2022/04/19 05:05:29;;;;;;;3.40;1.20;;;;;;100137.85;;;;107140;1274;64954;-30
2022/04/19 05:07:57;;;;;;;3.60;1.40;;;;;;100139.02;;;;107292;1274;64773;-30
2022/04/19 05:10:24;;;;;;;3.50;1.20;;;;;;100137.80;;;;107272;1274;64853;-31
2022/04/19 05:12:55;;;;;;;2.60;1.30;;;;;;100137.71;;;;107268;1274;64545;-35
2022/04/19 05:15:25;;;;;;;2.90;1.20;;;;;;100138.45;;;;107189;1274;64875;-35
2022/04/19 05:17:52;;;;;;;3.10;1.40;;;;;;100140.27;;;;107184;1274;64641;-36
2022/04/19 05:20:22;;;;;;;3.20;1.40;;;;;;100145.92;;;;107253;1274;64839;-35
2022/04/19 05:22:49;;;;;;;3.40;1.20;;;;;;100147.01;;;;107158;1274;64891;-42
2022/04/19 05:25:19;;;;;;;2.90;1.10;;;;;;100147.66;;;;107253;1274;65331;-31
2022/04/19 05:27:47;;;;;;;3.10;1.20;;;;;;100149.44;;;;107269;1274;65885;-29
2022/04/19 05:30:14;;;;;;;3.50;1.60;;;;;;100158.66;;;;107157;1274;64837;-29
2022/04/19 05:32:46;;;;;;;3.80;1.30;;;;;;100164.28;;;;107165;1274;64705;-35
2022/04/19 05:35:13;;;;;;;2.90;1.20;;;;;;100165.67;;;;107300;1274;64860;-36
2022/04/19 05:37:43;;;;;;;2.70;1.10;;;;;;100168.56;;;;107260;1274;65292;-31
2022/04/19 05:40:14;;;;;;;2.90;1.20;;;;;;100170.20;;;;107150;1274;66107;-31
2022/04/19 05:42:42;;;;;;;3.30;1.10;;;;;;100173.03;;;;107255;1273;64699;-31
2022/04/19 05:45:12;;;;;;;3.70;1.30;;;;;;100175.27;;;;107310;1273;64967;-30
2022/04/19 05:47:39;;;;;;;2.40;1.00;;;;;;100177.83;;;;107228;1274;66687;-35
2022/04/19 05:50:10;;;;;;;4.20;1.10;;;;;;100182.47;;;;107250;1274;64823;-35
2022/04/19 05:52:38;;;;;;;3.10;1.00;;;;;;100186.43;;;;107179;1274;64851;-31
2022/04/19 05:55:06;;;;;;;3.30;1.10;;;;;;100188.99;;;;107151;1274;64819;-31
2022/04/19 05:57:33;;;;;;;3.20;1.10;;;;;;100186.93;;;;107325;1274;64763;-35
2022/04/19 06:00:05;;;;;;;3.90;1.40;;;;;;100191.40;;;;107291;1274;65907;-36
2022/04/19 06:05:22;;;;;;;2.80;1.00;;;;;;100192.80;;;;107176;1274;64852;-36
2022/04/19 06:07:52;;;;;;;3.20;1.20;;;;;;100194.37;;;;107185;1274;65199;-32
2022/04/19 06:10:20;;;;;;;3.40;1.30;;;;;;100200.05;;;;107298;1274;64812;-33
2022/04/19 06:12:48;;;;;;;2.70;1.10;;;;;;100200.64;;;;107339;1274;65211;-32
2022/04/19 06:15:18;;;;;;;2.70;1.10;;;;;;100204.80;;;;107297;1274;64880;-36
2022/04/19 06:17:45;;;;;;;3.20;1.10;;;;;;100212.67;;;;107287;1274;64750;-31
2022/04/19 06:20:12;;;;;;;2.90;1.10;;;;;;100214.52;;;;107252;1274;64955;-32
2022/04/19 06:22:40;;;;;;;2.80;1.20;;;;;;100214.82;;;;107251;1274;64974;-31
2022/04/19 06:25:07;;;;;;;3.40;1.20;;;;;;100210.83;;;;107263;1274;64874;-31
2022/04/19 06:27:34;;;;;;;3.00;1.00;;;;;;100208.58;;;;107268;1274;64565;-30
2022/04/19 06:30:06;;;;;;;2.60;1.10;;;;;;100210.88;;;;107179;1274;64718;-31
2022/04/19 06:32:34;;;;;;;2.90;1.10;;;;;;100212.55;;;;107189;1274;64757;-31
2022/04/19 06:35:06;;;;;;;2.70;1.10;;;;;;100214.48;;;;107190;1274;64770;-31
2022/04/19 06:37:33;;;;;;;3.50;1.50;;;;;;100216.11;;;;107294;1274;65717;-35
2022/04/19 06:40:09;;;;;;;2.90;1.00;;;;;;100219.15;;;;107277;1274;64738;-35
2022/04/19 06:42:36;;;;;;;2.70;1.10;;;;;;100223.25;;;;107293;1274;64780;-30
2022/04/19 06:45:08;;;;;;;3.00;1.20;;;;;;100227.66;;;;107269;1274;64721;-31
2022/04/19 06:47:36;;;;;;;3.00;1.10;;;;;;100232.63;;;;107299;1274;63666;-36
2022/04/19 06:50:08;;;;;;;3.40;1.30;;;;;;100236.41;;;;107321;1272;64721;-35
2022/04/19 06:52:38;;;;;;;2.70;1.00;;;;;;100240.83;;;;107070;1276;64728;-36
2022/04/19 06:55:05;;;;;;;3.20;1.30;;;;;;100244.01;;;;107262;1274;64859;-36
2022/04/19 06:57:39;;;;;;;3.70;1.40;;;;;;100250.98;;;;107296;1274;64832;-31
2022/04/19 07:00:11;;;;;;;3.10;1.10;;;;;;100252.38;;;;107287;1274;64831;-31
2022/04/19 07:02:38;;;;;;;3.00;1.20;;;;;;100255.30;;;;107234;1274;65876;-32
2022/04/19 07:05:05;;;;;;;3.70;1.30;;;;;;100258.48;;;;107257;1273;64767;-37
2022/04/19 07:07:33;;;;;;;3.50;1.30;;;;;;100262.34;;;;107297;1274;64549;-37
2022/04/19 07:10:04;;;;;;;3.10;1.50;;;;;;100265.31;;;;107182;1274;64773;-37
2022/04/19 07:12:31;;;;;;;3.60;1.20;;;;;;100266.86;;;;107322;1274;65202;-35
2022/04/19 07:15:01;;;;;;;3.00;1.10;;;;;;100269.80;;;;107265;1274;66514;-35
2022/04/19 07:17:29;;;;;;;3.50;1.30;;;;;;100268.72;;;;107171;1274;64974;-30
2022/04/19 07:28:23;;;;;;;4.50;1.50;;;;;;100277.63;;;;107297;1274;66750;-37
2022/04/19 07:30:53;;;;;;;3.40;1.30;;;;;;100280.96;;;;107243;1274;64863;-30
2022/04/19 07:33:21;;;;;;;4.90;1.60;;;;;;100286.61;;;;107282;1274;64741;-35
2022/04/19 07:35:55;;;;;;;4.50;1.40;;;;;;100285.95;;;;107251;1274;64946;-35
2022/04/19 07:38:22;;;;;;;6.70;1.70;;;;;;100288.67;;;;107166;1274;64862;-32
2022/04/19 07:40:50;;;;;;;6.40;1.50;;;;;;100291.15;;;;107242;1274;64738;-31
2022/04/19 07:43:17;;;;;;;5.40;1.80;;;;;;100290.63;;;;107172;1274;64786;-33
2022/04/19 07:45:46;;;;;;;5.80;2.00;;;;;;100287.77;;;;107243;1274;64884;-31
2022/04/19 07:48:15;;;;;;;5.30;1.70;;;;;;100288.77;;;;107236;1274;64714;-34
2022/04/19 07:50:43;;;;;;;4.30;1.70;;;;;;100291.48;;;;107299;1274;64902;-37
2022/04/19 07:53:11;;;;;;;5.00;1.50;;;;;;100294.11;;;;107144;1275;65942;-34
2022/04/19 07:55:38;;;;;;;4.70;1.90;;;;;;100299.00;;;;107287;1274;64944;-32
2022/04/19 07:58:06;;;;;;;4.20;1.30;;;;;;100301.75;;;;107223;1274;64786;-32
2022/04/19 08:00:34;;;;;;;4.30;1.30;;;;;;100304.83;;;;107265;1274;64733;-33
2022/04/19 08:03:01;;;;;;;4.00;1.60;;;;;;100307.25;;;;107276;1274;64843;-39
2022/04/19 08:05:29;;;;;;;3.20;1.50;;;;;;100306.70;;;;107275;1274;67119;-35
2022/04/19 08:07:57;;;;;;;4.40;1.40;;;;;;100312.80;;;;107156;1274;64850;-34
2022/04/19 08:10:25;;;;;;;3.90;1.20;;;;;;100311.86;;;;107289;1274;64754;-34
2022/04/19 08:12:52;;;;;;;4.80;1.60;;;;;;100314.62;;;;107154;1274;64758;-31
2022/04/19 08:15:20;;;;;;;4.90;2.10;;;;;;100315.79;;;;107167;1274;64755;-31
2022/04/19 08:17:47;;;;;;;4.00;1.50;;;;;;100317.40;;;;107251;1274;66276;-32
2022/04/19 08:20:14;;;;;;;4.50;1.10;;;;;;100322.04;;;;107257;1274;64871;-35
2022/04/19 08:22:44;;;;;;;3.20;1.20;;;;;;100323.20;;;;107228;1274;64786;-32
2022/04/19 08:25:11;;;;;;;3.20;1.30;;;;;;100327.50;;;;107259;1274;64865;-29
2022/04/19 08:27:42;;;;;;;3.80;1.30;;;;;;100329.54;;;;107299;1274;64761;-31
2022/04/19 08:30:10;;;;;;;4.40;1.50;;;;;;100331.92;;;;107208;1274;65934;-31
2022/04/19 08:32:38;;;;;;;3.30;1.40;;;;;;100331.63;;;;107292;1274;64760;-31
2022/04/19 08:35:08;;;;;;;3.20;1.20;;;;;;100336.37;;;;107276;1274;64742;-31
2022/04/19 08:37:36;;;;;;;3.90;1.40;;;;;;100335.13;;;;107286;1274;64593;-32
2022/04/19 08:40:09;;;;;;;5.10;1.90;;;;;;100339.20;;;;107211;1274;64866;-32
2022/04/19 08:42:39;;;;;;;7.30;3.10;;;;;;100339.59;;;;107155;1274;67246;-31
2022/04/19 08:45:10;;;;;;;10.00;3.30;;;;;;100337.91;;;;107239;1274;64753;-30
2022/04/19 08:47:40;;;;;;;13.60;3.70;;;;;;100341.64;;;;107301;1274;64835;-31
2022/04/19 08:50:14;;;;;;;8.60;3.60;;;;;;100337.64;;;;107251;1274;64833;-31
2022/04/19 08:52:41;;;;;;;;;;;;;;100338.02;;;;107286;1274;64839;-31
2022/04/19 08:57:56;;;;;;;9.80;4.00;;;;;;100339.64;;;;107246;1274;64635;-30
2022/04/19 09:00:24;;;;;;;10.70;3.00;;;;;;100338.23;;;;107298;1274;64760;-33
2022/04/19 09:02:54;;;;;;;8.20;2.80;;;;;;100338.73;;;;107180;1274;65009;-38
2022/04/19 09:05:26;;;;;;;8.60;3.00;;;;;;100339.17;;;;107136;1274;64836;-31
2022/04/19 09:07:59;;;;;;;7.30;2.80;;;;;;100339.26;;;;107280;1274;65087;-31
2022/04/19 09:10:32;;;;;;;8.60;2.80;;;;;;100342.73;;;;107148;1277;64748;-31
2022/04/19 09:13:04;;;;;;;9.30;2.90;;;;;;100344.05;;;;107184;1274;64782;-30
2022/04/19 09:15:36;;;;;;;6.80;2.60;;;;;;100344.33;;;;107294;1274;64747;-32
2022/04/19 09:18:20;;;;;;;9.10;2.80;;;;;;100344.11;;;;107171;1274;64888;-32
2022/04/19 09:20:51;;;;;;;;;;;;;;100348.66;;;;107303;1274;65666;-32
2022/04/19 09:23:21;;;;;;;7.50;2.70;;;;;;100349.96;;;;107273;1274;64961;-32
2022/04/19 09:25:56;;;;;;;5.80;2.50;;;;;;100349.92;;;;107183;1274;65001;-33
2022/04/19 09:28:26;;;;;;;5.90;2.50;;;;;;100349.06;;;;107261;1274;64983;-34
2022/04/19 09:30:56;;;;;;;6.40;2.50;;;;;;100348.98;;;;107266;1274;64680;-31
2022/04/19 09:33:26;;;;;;;6.80;2.80;;;;;;100348.75;;;;107267;1275;67120;-30
2022/04/19 09:35:56;;;;;;;6.30;2.40;;;;;;100347.89;;;;107249;1274;64745;-28
2022/04/19 09:38:49;;;;;;;5.80;2.40;;;;;;100347.20;;;;107310;1274;64763;-33
2022/04/19 09:41:29;;;;;;;6.60;2.40;;;;;;100347.37;;;;107144;1274;64707;-33
2022/04/19 09:44:12;;;;;;;6.30;2.10;;;;;;100349.83;;;;107251;1274;64943;-42
2022/04/19 09:46:41;;;;;;;7.70;2.80;;;;;;100358.59;;;;107269;1274;65616;-32
2022/04/19 09:49:09;;;;;;;9.40;2.70;;;;;;100359.24;;;;107169;1274;64826;-32
2022/04/19 09:51:36;;;;;;;8.10;2.90;;;;;;100356.42;;;;107278;1274;65446;-32
2022/04/19 09:54:04;;;;;;;6.50;2.60;;;;;;100360.94;;;;107236;1274;64747;-30
2022/04/19 09:56:38;;;;;;;5.00;2.20;;;;;;100365.85;;;;107268;1274;64834;-30
2022/04/19 09:59:06;;;;;;;6.10;2.60;;;;;;100370.88;;;;107239;1274;66148;-28
2022/04/19 10:09:54;;;;;;;6.90;2.40;;;;;;100378.74;;;;107260;1274;64993;-31
2022/04/19 10:12:22;;;;;;;5.90;2.50;;;;;;100377.53;;;;107249;1274;66416;-33
2022/04/19 10:14:49;;;;;;;5.80;2.00;;;;;;100383.23;;;;107232;1274;65043;-33
2022/04/19 10:17:17;;;;;;;5.60;2.50;;;;;;100385.39;;;;107276;1274;65298;-33
2022/04/19 10:19:49;;;;;;;6.10;2.50;;;;;;100383.98;;;;107224;1273;65279;-37
2022/04/19 10:22:16;;;;;;;5.20;2.10;;;;;;100382.34;;;;107311;1274;64827;-42
2022/04/19 10:24:52;;;;;;;4.30;2.00;;;;;;100385.98;;;;107287;1274;64887;-32
2022/04/19 10:27:30;;;;;;;4.90;1.70;;;;;;100386.38;;;;107138;1274;64740;-33
2022/04/19 10:29:58;;;;;;;5.60;2.40;;;;;;100386.30;;;;107188;1274;65012;-33
2022/04/19 10:32:33;;;;;;;5.10;2.10;;;;;;100387.10;;;;107291;1274;64751;-33
2022/04/19 10:35:05;;;;;;;6.60;2.50;;;;;;100387.73;;;;107187;1274;64967;-33
2022/04/19 10:37:33;;;;;;;4.60;1.80;;;;;;100388.27;;;;107306;1274;67333;-32
2022/04/19 10:40:12;;;;;;;6.00;2.00;;;;;;100387.39;;;;107200;1274;64863;-32
2022/04/19 10:42:42;;;;;;;6.50;2.20;;;;;;100389.34;;;;107280;1274;64858;-33
2022/04/19 10:45:13;;;;;;;4.90;2.20;;;;;;100390.52;;;;107238;1274;64689;-33
2022/04/19 10:47:58;;;;;;;5.50;2.10;;;;;;100389.67;;;;107279;1274;64649;-31
2022/04/19 10:50:28;;;;;;;5.40;2.00;;;;;;100382.77;;;;107237;1274;65855;-28
2022/04/19 10:52:59;;;;;;;4.80;2.00;;;;;;100383.96;;;;107099;1274;64863;-29
2022/04/19 10:55:35;;;;;;;5.80;2.00;;;;;;100380.23;;;;107222;1274;64713;-28
2022/04/19 10:58:21;;;;;;;4.40;1.90;;;;;;100381.10;;;;107272;1274;64833;-33
2022/04/19 11:01:00;;;;;;;5.90;1.80;;;;;;100378.55;;;;107247;1274;64863;-32
2022/04/19 11:03:34;;;;;;;7.20;2.20;;;;;;100381.00;;;;107212;1274;67732;-36
2022/04/19 11:06:04;;;;;;;4.80;2.10;;;;;;100381.13;;;;107268;1274;64945;-33
2022/04/19 11:08:37;;;;;;;4.80;1.70;;;;;;100383.20;;;;107180;1274;64909;-33
2022/04/19 11:11:22;;;;;;;4.50;1.80;;;;;;100385.72;;;;107155;1274;64854;-35
2022/04/19 11:14:30;;;;;;;4.50;1.70;;;;;;100388.92;;;;107261;1274;64779;-33
2022/04/19 11:17:27;;;;;;;4.00;1.60;;;;;;100386.30;;;;107275;1274;67646;-39
2022/04/19 11:20:15;;;;;;;5.70;2.00;;;;;;100387.55;;;;107184;1274;64765;-34
2022/04/19 11:22:55;;;;;;;6.00;2.20;;;;;;100383.89;;;;107274;1274;64814;-33
2022/04/19 11:25:42;;;;;;;4.30;1.90;;;;;;100379.81;;;;107251;1274;64629;-32
2022/04/19 11:28:10;;;;;;;4.30;1.90;;;;;;100375.93;;;;107183;1274;64854;-40
2022/04/19 11:31:03;;;;;;;4.90;2.00;;;;;;100377.54;;;;107242;1274;65917;-36
2022/04/19 11:33:33;;;;;;;4.80;1.90;;;;;;100380.93;;;;107036;1275;64879;-31
2022/04/19 11:36:10;;;;;;;5.10;1.90;;;;;;100379.89;;;;107150;1274;64860;-37
2022/04/19 11:38:49;;;;;;;5.10;1.80;;;;;;100377.13;;;;107251;1274;64762;-36
2022/04/19 11:46:54;;;;;;;4.80;1.90;;;;;;100377.91;;;;107297;1274;64974;-35
2022/04/19 11:49:35;;;;;;;5.70;2.00;;;;;;100380.14;;;;107193;1273;64721;-36
2022/04/19 11:52:11;;;;;;;5.30;2.10;;;;;;100379.46;;;;107234;1274;64757;-36
2022/04/19 11:54:39;;;;;;;4.20;1.80;;;;;;100378.42;;;;107777;1274;64773;-36
2022/04/19 11:57:10;;;;;;;4.70;1.90;;;;;;100376.30;;;;108716;1274;65422;-37
2022/04/19 11:59:42;;;;;;;4.00;2.10;;;;;;100374.58;;;;107261;1274;64838;-36
2022/04/19 12:02:19;;;;;;;5.00;2.00;;;;;;100376.02;;;;107291;1274;64948;-35
2022/04/19 12:04:56;;;;;;;4.90;1.90;;;;;;100373.54;;;;107255;1274;64753;-34
2022/04/19 12:07:27;;;;;;;4.80;1.70;;;;;;100371.98;;;;107302;1274;64878;-35
2022/04/19 12:09:57;;;;;;;4.50;2.00;;;;;;100373.15;;;;107252;1274;67539;-35
2022/04/19 12:12:25;;;;;;;4.90;2.00;;;;;;100374.77;;;;107178;1274;65062;-35
2022/04/19 12:14:53;;;;;;;3.80;1.80;;;;;;100369.70;;;;107018;1274;275595;-34
2022/04/19 12:17:22;;;;;;;5.50;2.00;;;;;;100366.27;;;;107257;1274;64840;-39
2022/04/19 12:20:02;;;;;;;4.80;1.40;;;;;;100366.84;;;;107284;1274;64808;-40
2022/04/19 12:22:34;;;;;;;3.30;1.80;;;;;;100363.95;;;;107203;1275;67181;-28
2022/04/19 12:25:04;;;;;;;4.70;2.00;;;;;;100363.38;;;;107228;1274;64757;-30
2022/04/19 12:27:36;;;;;;;5.30;1.70;;;;;;100360.52;;;;107238;1273;63590;-30
2022/04/19 12:30:12;;;;;;;4.20;1.90;;;;;;100356.67;;;;107257;1274;64802;-32
2022/04/19 12:32:54;;;;;;;5.00;1.60;;;;;;100355.04;;;;107180;1274;64847;-37
2022/04/19 12:35:33;;;;;;;4.90;1.90;;;;;;100356.50;;;;107172;1274;67032;-37
2022/04/19 12:38:16;;;;;;;5.60;1.90;;;;;;100358.20;;;;107221;1274;64759;-32
2022/04/19 12:40:44;;;;;;;4.80;1.90;;;;;;100357.44;;;;107095;1277;64813;-34
2022/04/19 12:43:18;;;;;;;4.70;1.80;;;;;;100359.33;;;;107228;1274;64763;-31
2022/04/19 12:45:48;;;;;;;4.90;1.90;;;;;;100359.39;;;;107248;1274;64770;-37
2022/04/19 12:48:22;;;;;;;6.00;2.10;;;;;;100358.63;;;;107209;1274;64891;-38
2022/04/19 12:51:01;;;;;;;4.20;2.00;;;;;;100362.01;;;;107097;1275;64866;-34
2022/04/19 12:53:29;;;;;;;3.90;1.70;;;;;;100363.65;;;;107149;1274;64915;-36
2022/04/19 12:59:04;;;;;;;5.30;1.80;;;;;;100360.15;;;;107226;1275;64805;-36
2022/04/19 13:01:33;;;;;;;5.00;2.00;;;;;;100357.61;;;;107182;1274;65090;-33
2022/04/19 13:04:00;;;;;;;4.70;1.60;;;;;;100356.23;;;;107226;1274;64843;-33
2022/04/19 13:12:18;;;;;;;4.80;1.70;;;;;;100357.90;;;;107261;1274;64747;-33
2022/04/19 13:14:50;;;;;;;4.30;1.80;;;;;;100355.77;;;;107242;1274;65823;-33
2022/04/19 13:17:18;;;;;;;5.00;1.80;;;;;;100351.02;;;;107253;1274;64843;-35
2022/04/19 13:19:53;;;;;;;4.50;2.00;;;;;;100350.70;;;;107135;1274;64818;-36
2022/04/19 13:22:21;;;;;;;4.60;1.80;;;;;;100352.54;;;;107060;1277;64984;-32
2022/04/19 13:24:52;;;;;;;4.80;1.80;;;;;;100352.86;;;;106954;1274;64760;-33
2022/04/19 13:27:24;;;;;;;5.60;1.80;;;;;;100349.77;;;;109008;1273;64569;-34
2022/04/19 13:29:52;;;;;;;3.90;1.70;;;;;;100348.21;;;;109022;1274;62582;-34
2022/04/19 13:32:20;;;;;;;3.90;1.70;;;;;;100350.61;;;;109083;1273;62574;-33
2022/04/19 13:34:48;;;;;;;4.70;1.70;;;;;;100348.70;;;;109065;1274;62481;-33
2022/04/19 13:37:17;;;;;;;4.40;1.80;;;;;;100346.20;;;;108913;1274;62617;-32
2022/04/19 13:39:47;;;;;;;4.60;1.80;;;;;;100345.41;;;;107096;1274;64755;-33
2022/04/19 13:42:18;;;;;;;4.30;1.80;;;;;;100349.45;;;;107154;1274;64894;-34
2022/04/19 13:44:50;;;;;;;5.00;2.00;;;;;;100347.02;;;;107172;1274;64754;-33
2022/04/19 13:47:22;;;;;;;3.60;1.50;;;;;;100342.28;;;;107256;1274;64747;-34
2022/04/19 13:49:55;;;;;;;4.20;1.70;;;;;;100344.06;;;;107186;1274;64684;-33